MacAlister, Canada
Current Conditions -  °F | °C
As of 8:00 AM on Friday 19 Dec 2014 (Local Time) from CYWL Reporting Station
Broken Clouds Broken Clouds  
Wind Chill: 27°   Ceiling: 14000
Heat Index: 36°   Visibility: 15mi
Dew Point: 30°   Wind: 13mph
Humidity: 81%   Direction: 130°SE
Pressure: 29.61"   Gusts: NA
Location:  52.45°N, 122.4°W
Report Text: CYWL 191600Z 13011KT 15SM FEW050 FEW110 BKN140 BKN220 02/M01 A2961 RMK SC1AC2AC3CI1 SC TR SLP057
Loading
Personal Weather Stations






























Interactive Weather Map New forecast layout! Learn more

10-Day Weather Forecast

Advertisements
Track Severe Weather on mobile